Time;durP1;ratioP1;P1;durP2;ratioP2;P2;SDS_P1;SDS_P2;PMS_P1;PMS_P2;Temp;Humidity;BMP_temperature;BMP_pressure;BME280_temperature;BME280_humidity;BME280_pressure;Samples;Min_cycle;Max_cycle;Signal;HPM_P1;HPM_P2
2023/01/29 00:01:59;;;;;;;7.30;6.37;;;;;;;;;;5014582;28;20344;-72
2023/01/29 00:04:25;;;;;;;8.00;6.50;;;;;;;;;;5014620;28;20183;-72
2023/01/29 00:06:52;;;;;;;9.07;7.00;;;;;;;;;;5014847;28;20185;-72
2023/01/29 00:09:18;;;;;;;7.10;5.77;;;;;;;;;;5015883;28;20210;-72
2023/01/29 00:11:44;;;;;;;7.13;5.93;;;;;;;;;;5016599;28;20279;-72
2023/01/29 00:14:11;;;;;;;10.47;7.47;;;;;;;;;;5017429;28;20264;-72
2023/01/29 00:16:37;;;;;;;11.10;7.53;;;;;;;;;;5014648;28;20213;-72
2023/01/29 00:19:03;;;;;;;7.70;5.83;;;;;;;;;;5016072;28;20180;-72
2023/01/29 00:21:30;;;;;;;8.67;6.50;;;;;;;;;;5018390;28;20202;-72
2023/01/29 00:23:57;;;;;;;7.70;6.47;;;;;;;;;;5016156;28;20752;-72
2023/01/29 00:26:23;;;;;;;7.13;5.50;;;;;;;;;;5014939;28;20230;-72
2023/01/29 00:28:50;;;;;;;7.40;6.33;;;;;;;;;;5018035;28;20183;-72
2023/01/29 00:31:17;;;;;;;8.10;6.30;;;;;;;;;;5016814;28;20700;-71
2023/01/29 00:33:43;;;;;;;8.17;6.00;;;;;;;;;;5016039;28;20175;-72
2023/01/29 00:36:11;;;;;;;7.20;5.87;;;;;;;;;;5017507;28;20214;-72
2023/01/29 00:38:38;;;;;;;8.37;6.80;;;;;;;;;;5017639;28;20187;-72
2023/01/29 00:46:39;;;;;;;8.43;6.47;;;;;;;;;;5015643;28;20198;-72
2023/01/29 00:49:05;;;;;;;7.43;5.03;;;;;;;;;;5016828;28;20193;-72
2023/01/29 00:51:31;;;;;;;7.37;5.63;;;;;;;;;;5016624;28;20213;-72
2023/01/29 00:53:58;;;;;;;7.03;5.67;;;;;;;;;;5017278;28;20198;-72
2023/01/29 00:56:25;;;;;;;8.17;6.60;;;;;;;;;;5015977;28;20537;-72
2023/01/29 00:58:51;;;;;;;10.23;7.23;;;;;;;;;;5015214;28;20185;-72
2023/01/29 01:03:04;;;;;;;8.10;6.50;;;;;;;;;;5015875;28;20265;-72
2023/01/29 01:04:04;;;;;;;10.63;7.80;;;;;;;;;;5015237;28;20194;-72
2023/01/29 01:06:30;;;;;;;9.27;6.87;;;;;;;;;;5016778;28;20226;-72
2023/01/29 01:11:41;;;;;;;9.17;7.00;;;;;;;;;;5015730;28;20649;-72
2023/01/29 01:14:08;;;;;;;9.10;6.23;;;;;;;;;;5017605;28;20174;-72
2023/01/29 01:16:34;;;;;;;6.97;5.40;;;;;;;;;;5016352;28;20214;-72
2023/01/29 01:19:00;;;;;;;8.60;6.47;;;;;;;;;;5015122;28;20187;-72
2023/01/29 01:21:26;;;;;;;8.03;6.37;;;;;;;;;;5014818;28;20201;-72
2023/01/29 01:23:52;;;;;;;9.60;7.03;;;;;;;;;;5015427;28;20268;-72
2023/01/29 01:26:19;;;;;;;8.17;6.37;;;;;;;;;;5016525;28;20289;-72
2023/01/29 01:28:45;;;;;;;9.57;7.07;;;;;;;;;;5016423;28;20194;-72
2023/01/29 01:31:12;;;;;;;9.70;7.00;;;;;;;;;;5014353;28;20838;-72
2023/01/29 01:33:38;;;;;;;9.37;6.20;;;;;;;;;;5017286;28;20517;-72
2023/01/29 01:36:08;;;;;;;9.87;6.70;;;;;;;;;;5018876;28;20211;-72
2023/01/29 01:38:43;;;;;;;8.40;5.70;;;;;;;;;;5021176;28;20196;-72
2023/01/29 01:41:13;;;;;;;8.50;6.73;;;;;;;;;;5019608;28;20220;-72
2023/01/29 01:43:51;;;;;;;8.97;6.73;;;;;;;;;;5018544;28;20178;-72
2023/01/29 01:46:17;;;;;;;8.60;6.90;;;;;;;;;;5017977;28;20547;-72
2023/01/29 01:48:44;;;;;;;9.57;6.20;;;;;;;;;;5021066;28;20556;-72
2023/01/29 01:51:10;;;;;;;8.80;6.20;;;;;;;;;;5019993;28;20203;-72
2023/01/29 01:53:43;;;;;;;9.27;7.20;;;;;;;;;;5003002;28;20218;-72
2023/01/29 01:56:11;;;;;;;7.83;6.00;;;;;;;;;;5020229;28;20238;-73
2023/01/29 01:58:38;;;;;;;9.97;7.50;;;;;;;;;;5017834;28;20722;-72
2023/01/29 02:01:06;;;;;;;8.70;6.90;;;;;;;;;;5018679;28;20241;-72
2023/01/29 02:11:53;;;;;;;9.23;6.63;;;;;;;;;;5019621;28;20210;-72
2023/01/29 02:14:19;;;;;;;10.43;7.93;;;;;;;;;;5019157;28;20182;-72
2023/01/29 02:16:45;;;;;;;8.93;7.13;;;;;;;;;;5019265;28;20194;-72
2023/01/29 02:19:17;;;;;;;11.00;7.20;;;;;;;;;;5019846;28;20186;-72
2023/01/29 02:21:56;;;;;;;14.90;8.87;;;;;;;;;;5019797;28;20179;-72
2023/01/29 02:24:41;;;;;;;11.77;7.23;;;;;;;;;;5018062;28;20214;-72
2023/01/29 02:27:20;;;;;;;9.93;6.77;;;;;;;;;;5016689;28;20190;-72
2023/01/29 02:29:49;;;;;;;7.50;5.80;;;;;;;;;;5018330;28;20213;-72
2023/01/29 02:32:34;;;;;;;6.73;5.60;;;;;;;;;;5018409;28;20218;-72
2023/01/29 02:35:27;;;;;;;8.00;6.33;;;;;;;;;;5019766;28;20717;-72
2023/01/29 02:38:11;;;;;;;8.53;6.77;;;;;;;;;;5020567;28;20195;-72
2023/01/29 02:40:43;;;;;;;9.10;7.53;;;;;;;;;;5002817;28;20540;-72
2023/01/29 02:43:15;;;;;;;9.87;6.63;;;;;;;;;;5018653;28;20789;-72
2023/01/29 02:45:47;;;;;;;9.60;7.27;;;;;;;;;;5017048;28;20257;-72
2023/01/29 02:48:17;;;;;;;8.43;6.50;;;;;;;;;;5018079;28;20261;-72
2023/01/29 02:50:46;;;;;;;9.03;6.83;;;;;;;;;;5017089;28;20547;-72
2023/01/29 02:53:14;;;;;;;8.73;6.47;;;;;;;;;;5017789;28;20293;-72
2023/01/29 02:55:44;;;;;;;8.57;6.17;;;;;;;;;;5017968;28;20211;-72
2023/01/29 02:58:14;;;;;;;8.60;6.07;;;;;;;;;;5016663;28;20194;-72
2023/01/29 03:00:44;;;;;;;10.23;7.00;;;;;;;;;;5023244;28;20201;-72
2023/01/29 03:03:10;;;;;;;8.27;6.37;;;;;;;;;;5017277;28;20867;-72
2023/01/29 03:05:43;;;;;;;8.87;6.47;;;;;;;;;;5020186;28;20803;-72
2023/01/29 03:08:15;;;;;;;10.63;7.17;;;;;;;;;;5017970;28;20210;-72
2023/01/29 03:10:52;;;;;;;10.17;7.03;;;;;;;;;;5018599;28;20223;-72
2023/01/29 03:13:26;;;;;;;11.33;7.13;;;;;;;;;;5017591;28;20433;-72
2023/01/29 03:16:00;;;;;;;10.90;7.50;;;;;;;;;;5018040;28;20273;-71
2023/01/29 03:18:51;;;;;;;9.97;6.83;;;;;;;;;;5017671;28;20190;-72
2023/01/29 03:32:48;;;;;;;10.43;7.97;;;;;;;;;;5016948;28;20295;-72
2023/01/29 03:35:32;;;;;;;10.60;7.03;;;;;;;;;;5017636;28;20214;-72
2023/01/29 03:38:04;;;;;;;10.77;7.33;;;;;;;;;;5040676;28;20193;-72
2023/01/29 03:40:34;;;;;;;10.23;7.47;;;;;;;;;;5017229;28;20187;-72
2023/01/29 03:43:07;;;;;;;10.93;7.83;;;;;;;;;;5016534;28;20214;-71
2023/01/29 03:45:41;;;;;;;10.93;7.70;;;;;;;;;;5019324;28;20213;-72
2023/01/29 03:48:15;;;;;;;9.93;7.33;;;;;;;;;;5000012;28;20565;-72
2023/01/29 03:50:47;;;;;;;9.50;7.43;;;;;;;;;;5016636;28;20522;-72
2023/01/29 03:53:23;;;;;;;11.63;7.87;;;;;;;;;;5016462;28;20229;-72
2023/01/29 03:55:53;;;;;;;10.47;7.80;;;;;;;;;;5016888;28;20206;-72
2023/01/29 03:58:33;;;;;;;9.43;7.00;;;;;;;;;;5016529;28;20670;-71
2023/01/29 04:01:02;;;;;;;11.77;6.83;;;;;;;;;;5017348;28;20214;-72
2023/01/29 04:03:36;;;;;;;12.77;8.73;;;;;;;;;;5016275;28;20194;-72
2023/01/29 04:06:15;;;;;;;11.40;7.93;;;;;;;;;;5016178;28;20206;-72
2023/01/29 04:08:57;;;;;;;9.23;7.10;;;;;;;;;;5016104;28;20187;-72
2023/01/29 04:11:26;;;;;;;10.50;7.13;;;;;;;;;;5017002;28;20222;-72
2023/01/29 04:13:53;;;;;;;15.17;8.80;;;;;;;;;;5016013;28;20183;-72
2023/01/29 04:16:22;;;;;;;12.27;8.40;;;;;;;;;;5015019;28;20217;-72
2023/01/29 04:19:07;;;;;;;12.27;8.63;;;;;;;;;;5016248;28;20690;-71
2023/01/29 04:21:38;;;;;;;11.00;8.13;;;;;;;;;;5015503;28;20198;-71
2023/01/29 04:24:06;;;;;;;11.17;7.87;;;;;;;;;;5040627;28;20183;-74
2023/01/29 04:26:32;;;;;;;12.77;7.83;;;;;;;;;;4999127;28;20214;-74
2023/01/29 04:29:17;;;;;;;12.10;8.27;;;;;;;;;;5016445;28;20195;-73
2023/01/29 04:31:52;;;;;;;10.83;7.93;;;;;;;;;;4998821;28;20648;-72
2023/01/29 04:34:18;;;;;;;26.30;11.70;;;;;;;;;;5016406;28;20175;-73
2023/01/29 04:36:51;;;;;;;24.60;10.83;;;;;;;;;;4998099;28;20202;-73
2023/01/29 04:39:26;;;;;;;17.07;9.73;;;;;;;;;;5016167;28;20547;-72
2023/01/29 04:42:06;;;;;;;19.33;10.00;;;;;;;;;;5016589;28;20186;-73
2023/01/29 04:44:43;;;;;;;13.17;8.80;;;;;;;;;;5015224;28;20189;-73
2023/01/29 04:47:19;;;;;;;13.77;8.30;;;;;;;;;;5015386;28;20183;-73
2023/01/29 04:49:48;;;;;;;17.57;9.60;;;;;;;;;;5016547;28;20248;-72
2023/01/29 04:52:20;;;;;;;15.80;9.17;;;;;;;;;;5017296;28;20213;-72
2023/01/29 04:55:01;;;;;;;22.37;11.40;;;;;;;;;;5018084;28;20246;-72
2023/01/29 04:57:34;;;;;;;14.57;8.43;;;;;;;;;;5021980;28;20731;-72
2023/01/29 05:00:02;;;;;;;12.33;8.33;;;;;;;;;;5016004;28;20195;-72
2023/01/29 05:02:30;;;;;;;13.27;8.63;;;;;;;;;;5015895;28;20672;-72
2023/01/29 05:04:58;;;;;;;11.43;7.50;;;;;;;;;;5016537;28;20198;-73
2023/01/29 05:07:25;;;;;;;10.70;7.40;;;;;;;;;;5016053;28;20193;-72
2023/01/29 05:09:51;;;;;;;11.47;7.53;;;;;;;;;;5014377;28;20444;-72
2023/01/29 05:12:18;;;;;;;11.03;7.57;;;;;;;;;;5017372;28;20195;-72
2023/01/29 05:14:45;;;;;;;11.67;8.40;;;;;;;;;;5015541;28;20214;-72
2023/01/29 05:17:14;;;;;;;12.27;7.80;;;;;;;;;;5017042;28;20232;-72
2023/01/29 05:19:40;;;;;;;14.80;8.27;;;;;;;;;;5015884;28;20195;-72
2023/01/29 05:22:09;;;;;;;12.83;8.87;;;;;;;;;;5016478;28;20788;-72
2023/01/29 05:24:36;;;;;;;13.53;8.97;;;;;;;;;;5016545;28;20195;-73
2023/01/29 05:29:48;;;;;;;11.83;8.47;;;;;;;;;;5015269;28;20336;-73
2023/01/29 05:32:14;;;;;;;15.00;10.43;;;;;;;;;;5016280;28;20235;-73
2023/01/29 05:34:41;;;;;;;15.70;9.90;;;;;;;;;;5014570;28;20601;-73
2023/01/29 05:37:07;;;;;;;14.43;9.57;;;;;;;;;;5014716;28;20649;-73
2023/01/29 05:39:33;;;;;;;13.27;9.03;;;;;;;;;;5015829;28;20210;-73
2023/01/29 05:41:59;;;;;;;10.67;8.37;;;;;;;;;;5014186;28;20326;-73
2023/01/29 05:44:25;;;;;;;12.00;8.73;;;;;;;;;;5018385;28;20202;-73
2023/01/29 05:46:51;;;;;;;11.40;8.50;;;;;;;;;;5015721;28;20183;-73
2023/01/29 05:49:19;;;;;;;11.57;8.97;;;;;;;;;;5014290;28;20703;-72
2023/01/29 05:51:45;;;;;;;11.47;8.63;;;;;;;;;;5015952;28;20225;-73
2023/01/29 05:54:12;;;;;;;12.57;8.57;;;;;;;;;;5017103;28;20257;-73
2023/01/29 05:56:38;;;;;;;13.43;8.47;;;;;;;;;;5015729;28;20211;-74
2023/01/29 05:59:06;;;;;;;12.53;7.93;;;;;;;;;;5015355;28;20187;-74
2023/01/29 06:01:32;;;;;;;11.37;7.10;;;;;;;;;;5015560;28;20186;-73
2023/01/29 06:03:58;;;;;;;10.30;7.50;;;;;;;;;;5014980;28;20262;-73
2023/01/29 06:06:24;;;;;;;9.70;7.30;;;;;;;;;;5016052;28;20282;-73
2023/01/29 06:08:50;;;;;;;9.70;7.33;;;;;;;;;;5015068;28;20680;-73
2023/01/29 06:11:20;;;;;;;13.13;8.03;;;;;;;;;;5016467;28;20610;-73
2023/01/29 06:13:47;;;;;;;12.00;7.60;;;;;;;;;;5015460;28;20611;-73
2023/01/29 06:16:13;;;;;;;10.97;8.10;;;;;;;;;;5014982;28;20631;-73
2023/01/29 06:18:40;;;;;;;12.40;8.70;;;;;;;;;;5015316;28;20190;-73
2023/01/29 06:21:08;;;;;;;15.83;8.37;;;;;;;;;;5014985;28;20225;-73
2023/01/29 06:23:34;;;;;;;12.17;8.77;;;;;;;;;;5020621;28;20695;-73
2023/01/29 06:26:01;;;;;;;11.97;8.37;;;;;;;;;;5016517;28;20804;-73
2023/01/29 06:28:27;;;;;;;14.13;8.67;;;;;;;;;;5017665;28;20233;-73
2023/01/29 06:30:56;;;;;;;12.50;8.80;;;;;;;;;;5017283;28;20249;-73
2023/01/29 06:33:22;;;;;;;12.43;9.23;;;;;;;;;;5018983;28;20211;-73
2023/01/29 06:35:48;;;;;;;11.97;8.50;;;;;;;;;;5017798;28;20210;-73
2023/01/29 06:38:14;;;;;;;11.57;8.20;;;;;;;;;;5019534;28;20718;-73
2023/01/29 06:40:40;;;;;;;12.07;8.40;;;;;;;;;;5019460;28;20269;-73
2023/01/29 06:43:06;;;;;;;10.63;7.90;;;;;;;;;;5019075;28;20222;-73
2023/01/29 06:45:32;;;;;;;12.97;8.40;;;;;;;;;;5018571;28;20737;-73
2023/01/29 06:47:58;;;;;;;10.50;8.03;;;;;;;;;;5018109;28;20194;-73
2023/01/29 06:50:24;;;;;;;10.33;8.13;;;;;;;;;;5018611;28;20197;-73
2023/01/29 06:52:51;;;;;;;11.47;7.60;;;;;;;;;;5020116;28;20202;-73
2023/01/29 06:55:17;;;;;;;10.37;7.57;;;;;;;;;;5018291;28;20240;-73
2023/01/29 06:57:43;;;;;;;12.37;8.60;;;;;;;;;;5019306;28;20642;-73
2023/01/29 07:00:09;;;;;;;11.57;8.53;;;;;;;;;;5017342;28;20274;-73
2023/01/29 07:02:35;;;;;;;11.47;8.00;;;;;;;;;;5016212;28;20630;-73
2023/01/29 07:05:02;;;;;;;12.43;8.13;;;;;;;;;;5015734;28;20206;-73
2023/01/29 07:07:28;;;;;;;13.60;8.97;;;;;;;;;;5014376;28;20193;-73
2023/01/29 07:09:54;;;;;;;10.73;8.20;;;;;;;;;;5016752;28;20298;-73
2023/01/29 07:12:20;;;;;;;10.63;8.60;;;;;;;;;;5015905;28;20199;-73
2023/01/29 07:14:46;;;;;;;11.13;8.03;;;;;;;;;;5016338;28;20201;-73
2023/01/29 07:17:12;;;;;;;12.07;8.00;;;;;;;;;;5015054;28;20178;-73
2023/01/29 07:19:38;;;;;;;11.23;7.97;;;;;;;;;;5016718;28;20567;-73
2023/01/29 07:22:04;;;;;;;11.00;8.03;;;;;;;;;;5016413;28;20733;-73
2023/01/29 07:24:31;;;;;;;11.23;7.93;;;;;;;;;;5017329;28;20184;-73
2023/01/29 07:26:57;;;;;;;11.80;8.27;;;;;;;;;;5018123;28;20175;-73
2023/01/29 07:29:23;;;;;;;11.77;8.40;;;;;;;;;;5018581;28;20187;-73
2023/01/29 07:31:49;;;;;;;11.53;8.70;;;;;;;;;;5015838;28;20207;-73
2023/01/29 07:34:15;;;;;;;10.70;8.23;;;;;;;;;;5017273;28;20195;-73
2023/01/29 07:36:41;;;;;;;11.70;8.53;;;;;;;;;;5016923;28;20199;-73
2023/01/29 07:39:07;;;;;;;13.33;9.90;;;;;;;;;;5016287;28;20611;-74
2023/01/29 07:41:33;;;;;;;11.33;8.30;;;;;;;;;;5017871;28;20186;-75
2023/01/29 07:44:00;;;;;;;12.80;9.03;;;;;;;;;;5019255;28;20198;-74
2023/01/29 07:46:26;;;;;;;12.00;8.67;;;;;;;;;;5017786;28;20207;-74
2023/01/29 07:48:52;;;;;;;12.13;8.70;;;;;;;;;;5019834;28;20195;-75
2023/01/29 07:51:20;;;;;;;13.97;10.17;;;;;;;;;;5018624;28;20194;-75
2023/01/29 07:53:46;;;;;;;12.93;9.73;;;;;;;;;;5018328;28;20217;-75
2023/01/29 07:56:12;;;;;;;12.63;9.60;;;;;;;;;;5016490;28;20241;-73
2023/01/29 07:58:38;;;;;;;14.20;9.63;;;;;;;;;;5019176;28;20261;-72
2023/01/29 08:01:06;;;;;;;12.10;9.00;;;;;;;;;;5018241;28;20690;-73
2023/01/29 08:03:32;;;;;;;12.97;9.70;;;;;;;;;;5017416;28;20178;-72
2023/01/29 08:05:59;;;;;;;16.20;8.80;;;;;;;;;;5017648;28;20210;-73
2023/01/29 08:08:25;;;;;;;12.57;9.43;;;;;;;;;;5016315;28;20187;-73
2023/01/29 08:10:51;;;;;;;13.00;8.53;;;;;;;;;;5016738;28;20199;-73
2023/01/29 08:13:17;;;;;;;10.57;7.70;;;;;;;;;;5016546;28;20690;-73
2023/01/29 08:15:44;;;;;;;12.47;9.40;;;;;;;;;;5016881;28;20236;-72
2023/01/29 08:18:10;;;;;;;12.90;9.53;;;;;;;;;;5017728;28;20183;-72
2023/01/29 08:20:37;;;;;;;12.77;9.40;;;;;;;;;;5018013;28;20255;-72
2023/01/29 08:23:07;;;;;;;11.87;9.10;;;;;;;;;;5017259;28;20175;-72
2023/01/29 08:25:33;;;;;;;11.40;8.53;;;;;;;;;;5017403;28;20265;-72
2023/01/29 08:28:00;;;;;;;14.63;9.27;;;;;;;;;;5015420;28;20256;-72
2023/01/29 08:30:27;;;;;;;12.83;9.07;;;;;;;;;;5017560;28;20197;-72
2023/01/29 08:32:53;;;;;;;12.40;9.27;;;;;;;;;;5017231;28;20194;-73
2023/01/29 08:35:19;;;;;;;12.93;8.50;;;;;;;;;;5016876;28;20210;-72
2023/01/29 08:37:52;;;;;;;12.17;9.50;;;;;;;;;;5017440;28;20641;-72
2023/01/29 08:40:18;;;;;;;13.80;9.87;;;;;;;;;;5017455;28;20197;-72
2023/01/29 08:42:45;;;;;;;14.00;9.90;;;;;;;;;;5014771;28;20617;-74
2023/01/29 08:45:11;;;;;;;15.90;11.90;;;;;;;;;;5016655;28;20709;-71
2023/01/29 08:47:37;;;;;;;13.33;10.37;;;;;;;;;;5015781;28;20187;-72
2023/01/29 08:50:03;;;;;;;17.00;11.27;;;;;;;;;;5016055;28;20214;-78
2023/01/29 08:52:30;;;;;;;13.10;9.43;;;;;;;;;;5017186;28;20237;-72
2023/01/29 08:54:56;;;;;;;12.27;8.77;;;;;;;;;;5015536;28;20238;-73
2023/01/29 08:57:22;;;;;;;11.63;9.13;;;;;;;;;;4998019;28;20602;-72
2023/01/29 08:59:49;;;;;;;11.83;8.17;;;;;;;;;;5016574;28;20555;-72
2023/01/29 09:02:15;;;;;;;8.90;7.03;;;;;;;;;;5013757;28;20226;-72
2023/01/29 09:04:41;;;;;;;11.83;8.70;;;;;;;;;;5015070;28;20193;-72
2023/01/29 09:07:07;;;;;;;12.20;8.57;;;;;;;;;;5013589;28;20841;-72
2023/01/29 09:09:33;;;;;;;12.27;9.07;;;;;;;;;;5014396;28;20245;-72
2023/01/29 09:11:59;;;;;;;11.67;8.70;;;;;;;;;;5013710;28;20760;-74
2023/01/29 09:14:26;;;;;;;10.50;8.40;;;;;;;;;;5015603;28;20230;-73
2023/01/29 09:16:52;;;;;;;10.70;7.20;;;;;;;;;;5013526;28;20202;-72
2023/01/29 09:19:18;;;;;;;11.10;7.73;;;;;;;;;;5015855;28;20198;-73
2023/01/29 09:21:44;;;;;;;10.87;8.07;;;;;;;;;;5014412;28;21519;-73
2023/01/29 09:24:11;;;;;;;11.33;8.87;;;;;;;;;;5016467;28;20609;-73
2023/01/29 09:26:38;;;;;;;12.13;8.73;;;;;;;;;;5014043;28;20658;-73
2023/01/29 09:29:05;;;;;;;12.03;8.87;;;;;;;;;;5012998;28;20218;-73
2023/01/29 09:31:31;;;;;;;12.10;8.70;;;;;;;;;;5015396;28;20181;-73
2023/01/29 09:33:57;;;;;;;12.43;8.80;;;;;;;;;;5017218;28;20982;-73
2023/01/29 09:36:23;;;;;;;11.03;8.47;;;;;;;;;;5013431;28;20223;-74
2023/01/29 09:38:50;;;;;;;9.77;7.57;;;;;;;;;;5015035;28;20183;-73
2023/01/29 09:41:25;;;;;;;12.80;8.23;;;;;;;;;;5014393;28;20215;-74
2023/01/29 09:43:56;;;;;;;12.13;9.13;;;;;;;;;;5016154;28;20205;-73
2023/01/29 09:46:29;;;;;;;13.10;9.60;;;;;;;;;;5012598;28;21265;-73
2023/01/29 09:49:01;;;;;;;11.93;8.83;;;;;;;;;;5013998;28;20205;-73
2023/01/29 09:51:30;;;;;;;12.40;9.40;;;;;;;;;;5013250;28;20257;-73
2023/01/29 09:54:14;;;;;;;12.63;9.37;;;;;;;;;;5014232;28;20195;-73
2023/01/29 09:56:41;;;;;;;12.13;9.27;;;;;;;;;;5012080;28;20213;-73
2023/01/29 09:59:08;;;;;;;11.50;9.07;;;;;;;;;;5015430;28;20233;-73
2023/01/29 10:01:37;;;;;;;15.53;10.67;;;;;;;;;;5016133;28;20179;-74
2023/01/29 10:04:19;;;;;;;15.47;10.20;;;;;;;;;;5017778;28;20226;-74
2023/01/29 10:06:54;;;;;;;12.63;9.50;;;;;;;;;;5018286;28;20863;-73
2023/01/29 10:09:39;;;;;;;13.83;10.33;;;;;;;;;;5033393;28;20185;-73
2023/01/29 10:12:20;;;;;;;16.17;10.70;;;;;;;;;;5017784;28;20233;-74
2023/01/29 10:14:59;;;;;;;13.83;9.83;;;;;;;;;;5018344;28;20218;-73
2023/01/29 10:17:26;;;;;;;15.27;11.17;;;;;;;;;;5018563;28;20241;-73
2023/01/29 10:20:04;;;;;;;15.70;10.47;;;;;;;;;;5016720;28;20179;-73
2023/01/29 10:22:37;;;;;;;16.30;11.10;;;;;;;;;;5018059;28;20179;-74
2023/01/29 10:25:05;;;;;;;13.27;9.77;;;;;;;;;;5018895;28;20264;-74
2023/01/29 10:27:37;;;;;;;13.77;9.77;;;;;;;;;;5017781;28;20272;-73
2023/01/29 10:30:08;;;;;;;13.40;10.00;;;;;;;;;;5018252;28;20273;-74
2023/01/29 10:32:35;;;;;;;12.90;9.47;;;;;;;;;;5019264;28;20207;-73
2023/01/29 10:35:04;;;;;;;13.10;9.23;;;;;;;;;;5019617;28;20210;-73
2023/01/29 10:37:39;;;;;;;12.73;8.80;;;;;;;;;;5017258;28;20285;-73
2023/01/29 10:40:28;;;;;;;11.80;8.93;;;;;;;;;;5017110;28;20201;-74
2023/01/29 10:43:17;;;;;;;11.43;8.37;;;;;;;;;;5010971;28;20206;-73
2023/01/29 10:45:48;;;;;;;13.17;9.60;;;;;;;;;;5016078;28;20206;-73
2023/01/29 10:48:27;;;;;;;12.77;9.77;;;;;;;;;;5019483;28;20195;-73
2023/01/29 10:50:53;;;;;;;12.70;9.47;;;;;;;;;;5018880;28;20666;-74
2023/01/29 10:53:42;;;;;;;11.77;8.40;;;;;;;;;;5018157;28;20237;-75
2023/01/29 10:56:25;;;;;;;13.30;9.57;;;;;;;;;;5019134;28;20242;-72
2023/01/29 10:58:54;;;;;;;11.70;8.83;;;;;;;;;;5019017;28;20821;-72
2023/01/29 11:01:21;;;;;;;13.63;9.47;;;;;;;;;;5015635;28;20228;-75
2023/01/29 11:03:55;;;;;;;13.40;9.30;;;;;;;;;;5017255;28;20190;-74
2023/01/29 11:06:28;;;;;;;12.73;9.60;;;;;;;;;;5018355;28;20214;-74
2023/01/29 11:09:13;;;;;;;11.90;8.90;;;;;;;;;;5016432;28;20186;-72
2023/01/29 11:11:45;;;;;;;13.77;10.57;;;;;;;;;;5016693;28;20186;-72
2023/01/29 11:14:14;;;;;;;15.63;10.93;;;;;;;;;;5015723;28;20186;-71
2023/01/29 11:16:41;;;;;;;17.00;11.70;;;;;;;;;;5017680;28;20211;-71
2023/01/29 11:19:07;;;;;;;13.90;10.00;;;;;;;;;;5015944;28;20187;-72
2023/01/29 11:21:49;;;;;;;15.43;10.60;;;;;;;;;;5015934;28;20186;-71
2023/01/29 11:24:16;;;;;;;12.93;8.87;;;;;;;;;;5016904;28;20187;-72
2023/01/29 11:26:43;;;;;;;15.87;10.43;;;;;;;;;;5015638;28;20341;-71
2023/01/29 11:29:48;;;;;;;12.80;9.73;;;;;;;;;;5016670;28;20183;-72
2023/01/29 11:32:23;;;;;;;14.57;10.07;;;;;;;;;;4960715;28;20233;-71
2023/01/29 11:34:56;;;;;;;13.53;10.07;;;;;;;;;;4946121;28;20215;-71
2023/01/29 11:37:22;;;;;;;11.93;9.10;;;;;;;;;;4993950;28;20194;-72
2023/01/29 11:39:49;;;;;;;12.33;9.17;;;;;;;;;;5015835;28;20243;-72
2023/01/29 11:42:22;;;;;;;12.97;9.17;;;;;;;;;;5015592;28;20832;-72
2023/01/29 11:44:49;;;;;;;13.87;9.73;;;;;;;;;;5015365;28;20207;-74
2023/01/29 11:47:15;;;;;;;13.50;10.13;;;;;;;;;;5013799;28;20194;-73
2023/01/29 11:49:46;;;;;;;15.13;10.40;;;;;;;;;;5020115;28;20182;-72
2023/01/29 11:52:14;;;;;;;16.93;11.23;;;;;;;;;;5017228;28;20697;-71
2023/01/29 11:54:44;;;;;;;14.87;10.83;;;;;;;;;;5016252;28;20217;-72
2023/01/29 11:57:24;;;;;;;12.70;10.20;;;;;;;;;;5016592;28;20190;-73
2023/01/29 11:59:52;;;;;;;16.50;10.50;;;;;;;;;;5016785;28;20725;-76
2023/01/29 12:02:30;;;;;;;14.37;9.20;;;;;;;;;;5016201;28;20187;-73
2023/01/29 12:04:58;;;;;;;14.67;10.30;;;;;;;;;;5017462;28;20209;-73
2023/01/29 12:07:24;;;;;;;15.70;10.53;;;;;;;;;;5014616;28;20193;-73
2023/01/29 12:09:55;;;;;;;17.37;11.80;;;;;;;;;;5017487;28;20563;-78
2023/01/29 12:12:30;;;;;;;13.93;10.40;;;;;;;;;;5016319;28;20752;-74
2023/01/29 12:15:15;;;;;;;16.17;11.53;;;;;;;;;;5019138;28;20245;-72
2023/01/29 12:17:45;;;;;;;15.57;11.43;;;;;;;;;;5018450;28;20608;-72
2023/01/29 12:20:14;;;;;;;16.20;11.50;;;;;;;;;;5017615;28;20193;-74
2023/01/29 12:23:02;;;;;;;16.50;12.13;;;;;;;;;;5021863;28;20678;-73
2023/01/29 12:25:31;;;;;;;17.17;12.50;;;;;;;;;;5016135;28;21274;-74
2023/01/29 12:28:08;;;;;;;17.07;12.37;;;;;;;;;;5018180;28;20202;-74
2023/01/29 12:30:58;;;;;;;18.33;11.97;;;;;;;;;;5019147;28;20758;-75
2023/01/29 12:33:54;;;;;;;16.37;12.27;;;;;;;;;;4998197;28;20210;-74
2023/01/29 12:36:55;;;;;;;15.80;11.77;;;;;;;;;;4999738;28;20218;-76
2023/01/29 12:39:22;;;;;;;17.00;12.03;;;;;;;;;;5016701;28;20689;-73
2023/01/29 12:41:58;;;;;;;15.37;11.67;;;;;;;;;;5018629;28;20167;-75
2023/01/29 12:44:32;;;;;;;16.43;11.40;;;;;;;;;;5018931;28;20244;-73
2023/01/29 12:47:00;;;;;;;15.87;11.73;;;;;;;;;;5015728;28;20182;-73
2023/01/29 12:49:29;;;;;;;16.93;12.50;;;;;;;;;;5017447;28;20209;-75
2023/01/29 12:52:18;;;;;;;18.80;12.33;;;;;;;;;;5016424;28;20207;-74
2023/01/29 12:55:07;;;;;;;15.27;11.77;;;;;;;;;;5015962;28;20210;-75
2023/01/29 12:57:49;;;;;;;16.13;11.70;;;;;;;;;;5017719;28;20178;-77
2023/01/29 13:00:20;;;;;;;16.03;11.63;;;;;;;;;;5015212;28;20210;-77
2023/01/29 13:02:58;;;;;;;15.50;11.73;;;;;;;;;;5015799;28;20179;-75
2023/01/29 13:05:35;;;;;;;15.03;11.80;;;;;;;;;;5017690;28;20221;-75
2023/01/29 13:08:08;;;;;;;15.60;11.50;;;;;;;;;;5017833;28;20186;-75
2023/01/29 13:10:37;;;;;;;15.67;12.17;;;;;;;;;;5013060;28;20191;-78
2023/01/29 13:13:27;;;;;;;16.17;10.97;;;;;;;;;;5015191;28;20209;-75
2023/01/29 13:15:56;;;;;;;16.87;12.13;;;;;;;;;;4991326;28;20782;-75
2023/01/29 13:18:38;;;;;;;15.10;11.77;;;;;;;;;;5016401;28;20179;-76
2023/01/29 13:21:10;;;;;;;16.50;11.30;;;;;;;;;;5016731;28;20198;-78
2023/01/29 13:23:48;;;;;;;13.53;10.60;;;;;;;;;;5018259;28;20612;-75
2023/01/29 13:26:19;;;;;;;15.47;11.23;;;;;;;;;;5015361;28;20610;-77
2023/01/29 13:28:49;;;;;;;16.67;11.43;;;;;;;;;;5014369;28;20407;-75
2023/01/29 13:31:28;;;;;;;16.40;12.67;;;;;;;;;;4997406;28;20207;-75
2023/01/29 13:34:05;;;;;;;16.47;12.13;;;;;;;;;;5013206;28;20190;-75
2023/01/29 13:36:32;;;;;;;17.33;12.90;;;;;;;;;;5015263;28;20206;-75
2023/01/29 13:39:04;;;;;;;16.77;12.33;;;;;;;;;;5013531;28;21544;-76
2023/01/29 13:41:34;;;;;;;17.80;13.00;;;;;;;;;;5017907;28;20695;-74
2023/01/29 13:44:02;;;;;;;16.97;12.03;;;;;;;;;;5015748;28;20209;-74
2023/01/29 13:46:29;;;;;;;16.23;12.07;;;;;;;;;;5015230;28;20226;-73
2023/01/29 13:48:59;;;;;;;16.33;11.80;;;;;;;;;;5012993;28;20179;-74
2023/01/29 13:51:30;;;;;;;16.57;11.83;;;;;;;;;;5011245;28;20756;-75
2023/01/29 13:54:08;;;;;;;17.07;11.90;;;;;;;;;;5015199;28;20198;-74
2023/01/29 13:56:35;;;;;;;18.40;11.87;;;;;;;;;;5014698;28;20229;-74
2023/01/29 13:59:03;;;;;;;15.37;10.50;;;;;;;;;;5014721;28;20179;-73
2023/01/29 14:01:56;;;;;;;16.90;12.30;;;;;;;;;;5012457;28;20210;-73
2023/01/29 14:04:30;;;;;;;17.17;12.40;;;;;;;;;;5013872;28;20193;-73
2023/01/29 14:06:58;;;;;;;15.77;11.87;;;;;;;;;;5012917;28;20325;-72
2023/01/29 14:09:31;;;;;;;18.23;12.40;;;;;;;;;;5015183;28;20206;-72
2023/01/29 14:11:58;;;;;;;17.33;12.00;;;;;;;;;;5013516;28;20210;-72
2023/01/29 14:14:44;;;;;;;17.23;11.77;;;;;;;;;;5015138;28;20176;-73
2023/01/29 14:17:11;;;;;;;15.27;11.90;;;;;;;;;;5014371;28;20184;-72
2023/01/29 14:19:45;;;;;;;19.47;12.00;;;;;;;;;;5014423;28;20649;-72
2023/01/29 14:22:22;;;;;;;15.63;11.00;;;;;;;;;;5011060;28;20187;-72
2023/01/29 14:24:49;;;;;;;16.60;10.73;;;;;;;;;;5012909;28;20879;-72
2023/01/29 14:27:21;;;;;;;15.87;10.97;;;;;;;;;;5012473;28;20623;-72
2023/01/29 14:29:58;;;;;;;15.37;10.50;;;;;;;;;;5014140;28;20218;-72
2023/01/29 14:32:26;;;;;;;15.97;11.23;;;;;;;;;;5012412;28;20214;-73
2023/01/29 14:35:02;;;;;;;20.03;11.83;;;;;;;;;;5014139;28;20264;-74
2023/01/29 14:37:33;;;;;;;15.63;11.63;;;;;;;;;;5011702;28;20187;-72
2023/01/29 14:40:11;;;;;;;16.43;11.43;;;;;;;;;;5011155;28;20190;-73
2023/01/29 14:42:43;;;;;;;16.27;10.83;;;;;;;;;;5013361;28;20448;-72
2023/01/29 14:45:11;;;;;;;18.20;11.80;;;;;;;;;;5016998;28;20579;-72
2023/01/29 14:47:41;;;;;;;15.70;11.80;;;;;;;;;;5013744;28;20567;-72
2023/01/29 14:50:36;;;;;;;18.17;12.67;;;;;;;;;;5015750;28;20978;-72
2023/01/29 14:53:22;;;;;;;15.93;11.60;;;;;;;;;;5017008;28;20202;-72
2023/01/29 14:56:08;;;;;;;14.73;10.60;;;;;;;;;;5016732;28;20303;-72
2023/01/29 14:58:37;;;;;;;15.13;10.37;;;;;;;;;;5018707;28;20261;-72
2023/01/29 15:01:18;;;;;;;14.57;10.97;;;;;;;;;;5015912;28;20397;-75
2023/01/29 15:03:52;;;;;;;15.77;10.83;;;;;;;;;;5010748;28;20213;-72
2023/01/29 15:06:45;;;;;;;16.67;11.50;;;;;;;;;;5014984;28;20205;-74
2023/01/29 15:09:31;;;;;;;16.03;10.77;;;;;;;;;;5020299;28;20750;-73
2023/01/29 15:12:03;;;;;;;14.80;9.97;;;;;;;;;;5015491;28;20206;-72
2023/01/29 15:14:36;;;;;;;15.00;11.17;;;;;;;;;;5015016;28;20269;-72
2023/01/29 15:17:08;;;;;;;13.70;9.77;;;;;;;;;;5014998;28;20253;-72
2023/01/29 15:19:36;;;;;;;15.37;10.23;;;;;;;;;;5013875;28;20268;-73
2023/01/29 15:22:10;;;;;;;16.30;10.50;;;;;;;;;;5015864;28;20361;-72